sensor_id;sensor_type;location;lat;lon;timestamp;pressure;altitude;pressure_sealevel;temperature;humidity
15884;BME280;8040;50.254;10.960;2024-01-15T00:00:32;96822.69;;;1.34;62.62
15884;BME280;8040;50.254;10.960;2024-01-15T00:02:58;96804.03;;;1.29;62.72
15884;BME280;8040;50.254;10.960;2024-01-15T00:05:23;96800.28;;;1.30;62.67
15884;BME280;8040;50.254;10.960;2024-01-15T00:07:48;96798.69;;;1.24;63.13
15884;BME280;8040;50.254;10.960;2024-01-15T00:10:13;96817.84;;;1.41;63.05
15884;BME280;8040;50.254;10.960;2024-01-15T00:12:39;96808.25;;;1.35;62.55
15884;BME280;8040;50.254;10.960;2024-01-15T00:15:04;96806.72;;;1.24;62.64
15884;BME280;8040;50.254;10.960;2024-01-15T00:17:29;96800.63;;;1.19;62.38
15884;BME280;8040;50.254;10.960;2024-01-15T00:19:55;96791.00;;;1.18;62.91
15884;BME280;8040;50.254;10.960;2024-01-15T00:22:20;96786.53;;;1.03;62.34
15884;BME280;8040;50.254;10.960;2024-01-15T00:24:45;96782.53;;;1.01;63.36
15884;BME280;8040;50.254;10.960;2024-01-15T00:27:12;96781.44;;;1.12;63.64
15884;BME280;8040;50.254;10.960;2024-01-15T00:29:38;96784.63;;;1.14;63.22
15884;BME280;8040;50.254;10.960;2024-01-15T00:32:03;96786.44;;;1.23;63.56
15884;BME280;8040;50.254;10.960;2024-01-15T00:34:29;96776.38;;;1.05;62.75
15884;BME280;8040;50.254;10.960;2024-01-15T00:36:54;96772.94;;;1.05;63.18
15884;BME280;8040;50.254;10.960;2024-01-15T00:39:19;96769.44;;;1.04;64.02
15884;BME280;8040;50.254;10.960;2024-01-15T00:41:45;96764.63;;;1.06;63.42
15884;BME280;8040;50.254;10.960;2024-01-15T00:44:10;96769.69;;;1.08;63.88
15884;BME280;8040;50.254;10.960;2024-01-15T00:46:43;96765.16;;;1.08;63.97
15884;BME280;8040;50.254;10.960;2024-01-15T00:49:09;96775.28;;;1.11;63.96
15884;BME280;8040;50.254;10.960;2024-01-15T00:51:34;96773.44;;;1.07;63.71
15884;BME280;8040;50.254;10.960;2024-01-15T00:53:59;96767.03;;;1.03;64.31
15884;BME280;8040;50.254;10.960;2024-01-15T00:56:24;96769.97;;;1.06;64.39
15884;BME280;8040;50.254;10.960;2024-01-15T00:58:50;96770.00;;;1.01;64.50
15884;BME280;8040;50.254;10.960;2024-01-15T01:01:15;96772.13;;;1.04;64.43
15884;BME280;8040;50.254;10.960;2024-01-15T01:03:40;96767.84;;;1.03;64.89
15884;BME280;8040;50.254;10.960;2024-01-15T01:06:05;96770.19;;;1.15;64.74
15884;BME280;8040;50.254;10.960;2024-01-15T01:08:31;96773.41;;;1.17;65.07
15884;BME280;8040;50.254;10.960;2024-01-15T01:10:56;96771.22;;;1.24;64.74
15884;BME280;8040;50.254;10.960;2024-01-15T01:13:21;96758.94;;;1.23;64.62
15884;BME280;8040;50.254;10.960;2024-01-15T01:15:47;96764.19;;;1.38;64.83
15884;BME280;8040;50.254;10.960;2024-01-15T01:18:13;96765.56;;;1.30;64.62
15884;BME280;8040;50.254;10.960;2024-01-15T01:20:38;96772.06;;;1.14;64.36
15884;BME280;8040;50.254;10.960;2024-01-15T01:23:03;96768.31;;;1.15;64.62
15884;BME280;8040;50.254;10.960;2024-01-15T01:25:28;96768.31;;;1.20;65.17
15884;BME280;8040;50.254;10.960;2024-01-15T01:27:54;96760.28;;;1.25;65.14
15884;BME280;8040;50.254;10.960;2024-01-15T01:30:19;96757.31;;;1.27;64.67
15884;BME280;8040;50.254;10.960;2024-01-15T01:32:44;96754.97;;;1.15;64.22
15884;BME280;8040;50.254;10.960;2024-01-15T01:35:09;96747.22;;;1.14;64.95
15884;BME280;8040;50.254;10.960;2024-01-15T01:37:35;96754.41;;;1.18;64.88
15884;BME280;8040;50.254;10.960;2024-01-15T01:40:00;96749.59;;;1.25;64.99
15884;BME280;8040;50.254;10.960;2024-01-15T01:42:25;96742.09;;;1.27;64.72
15884;BME280;8040;50.254;10.960;2024-01-15T01:44:51;96755.41;;;1.32;64.23
15884;BME280;8040;50.254;10.960;2024-01-15T01:47:16;96749.06;;;1.18;63.79
15884;BME280;8040;50.254;10.960;2024-01-15T01:49:41;96752.19;;;1.30;64.58
15884;BME280;8040;50.254;10.960;2024-01-15T01:52:07;96754.56;;;1.37;63.98
15884;BME280;8040;50.254;10.960;2024-01-15T01:54:34;96754.94;;;1.25;63.78
15884;BME280;8040;50.254;10.960;2024-01-15T01:57:00;96754.34;;;1.33;63.95
15884;BME280;8040;50.254;10.960;2024-01-15T01:59:27;96758.28;;;1.41;64.10
15884;BME280;8040;50.254;10.960;2024-01-15T02:01:54;96756.97;;;1.38;64.00
15884;BME280;8040;50.254;10.960;2024-01-15T02:04:19;96764.41;;;1.41;63.83
15884;BME280;8040;50.254;10.960;2024-01-15T02:06:44;96755.56;;;1.46;64.01
15884;BME280;8040;50.254;10.960;2024-01-15T02:09:11;96767.06;;;1.46;63.99
15884;BME280;8040;50.254;10.960;2024-01-15T02:11:40;96755.66;;;1.36;63.47
15884;BME280;8040;50.254;10.960;2024-01-15T02:14:05;96753.72;;;1.41;64.02
15884;BME280;8040;50.254;10.960;2024-01-15T02:16:32;96754.88;;;1.30;63.77
15884;BME280;8040;50.254;10.960;2024-01-15T02:18:57;96752.25;;;1.25;63.46
15884;BME280;8040;50.254;10.960;2024-01-15T02:21:22;96747.41;;;1.32;63.87
15884;BME280;8040;50.254;10.960;2024-01-15T02:23:47;96745.81;;;1.31;63.48
15884;BME280;8040;50.254;10.960;2024-01-15T02:26:13;96751.66;;;1.33;63.76
15884;BME280;8040;50.254;10.960;2024-01-15T02:28:39;96751.59;;;1.43;63.99
15884;BME280;8040;50.254;10.960;2024-01-15T02:31:04;96739.38;;;1.32;63.36
15884;BME280;8040;50.254;10.960;2024-01-15T02:33:29;96748.41;;;1.36;63.44
15884;BME280;8040;50.254;10.960;2024-01-15T02:35:54;96757.50;;;1.40;63.39
15884;BME280;8040;50.254;10.960;2024-01-15T02:38:20;96757.50;;;1.35;63.81
15884;BME280;8040;50.254;10.960;2024-01-15T02:40:45;96761.00;;;1.36;63.95
15884;BME280;8040;50.254;10.960;2024-01-15T02:43:10;96752.78;;;1.27;63.64
15884;BME280;8040;50.254;10.960;2024-01-15T02:45:36;96741.53;;;1.30;63.68
15884;BME280;8040;50.254;10.960;2024-01-15T02:48:01;96742.06;;;1.32;63.63
15884;BME280;8040;50.254;10.960;2024-01-15T02:50:26;96733.56;;;1.25;63.50
15884;BME280;8040;50.254;10.960;2024-01-15T02:52:52;96737.28;;;1.24;63.36
15884;BME280;8040;50.254;10.960;2024-01-15T02:55:17;96735.94;;;1.27;63.86
15884;BME280;8040;50.254;10.960;2024-01-15T02:57:43;96736.75;;;1.27;63.68
15884;BME280;8040;50.254;10.960;2024-01-15T03:00:08;96726.88;;;1.28;63.72
15884;BME280;8040;50.254;10.960;2024-01-15T03:02:36;96737.03;;;1.21;63.60
15884;BME280;8040;50.254;10.960;2024-01-15T03:05:04;96730.84;;;1.30;63.87
15884;BME280;8040;50.254;10.960;2024-01-15T03:07:29;96733.31;;;1.22;63.73
15884;BME280;8040;50.254;10.960;2024-01-15T03:09:55;96736.50;;;1.24;63.59
15884;BME280;8040;50.254;10.960;2024-01-15T03:12:20;96733.31;;;1.22;63.73
15884;BME280;8040;50.254;10.960;2024-01-15T03:14:46;96731.16;;;1.24;63.79
15884;BME280;8040;50.254;10.960;2024-01-15T03:17:11;96731.44;;;1.22;64.04
15884;BME280;8040;50.254;10.960;2024-01-15T03:19:37;96738.94;;;1.20;63.98
15884;BME280;8040;50.254;10.960;2024-01-15T03:22:02;96731.22;;;1.14;64.40
15884;BME280;8040;50.254;10.960;2024-01-15T03:24:28;96735.72;;;1.18;64.58
15884;BME280;8040;50.254;10.960;2024-01-15T03:26:54;96731.47;;;1.17;63.84
15884;BME280;8040;50.254;10.960;2024-01-15T03:29:19;96723.69;;;1.21;63.93
15884;BME280;8040;50.254;10.960;2024-01-15T03:31:44;96728.03;;;1.12;64.72
15884;BME280;8040;50.254;10.960;2024-01-15T03:34:09;96731.47;;;1.17;64.37
15884;BME280;8040;50.254;10.960;2024-01-15T03:36:35;96725.63;;;1.10;64.00
15884;BME280;8040;50.254;10.960;2024-01-15T03:39:00;96723.56;;;1.02;64.29
15884;BME280;8040;50.254;10.960;2024-01-15T03:41:25;96728.31;;;1.05;64.08
15884;BME280;8040;50.254;10.960;2024-01-15T03:43:52;96720.06;;;1.07;64.06
15884;BME280;8040;50.254;10.960;2024-01-15T03:46:17;96721.88;;;1.11;64.06
15884;BME280;8040;50.254;10.960;2024-01-15T03:48:42;96722.22;;;1.05;64.04
15884;BME280;8040;50.254;10.960;2024-01-15T03:51:08;96723.56;;;1.02;64.59
15884;BME280;8040;50.254;10.960;2024-01-15T03:53:33;96726.75;;;1.04;64.59
15884;BME280;8040;50.254;10.960;2024-01-15T03:55:58;96717.13;;;1.03;64.82
15884;BME280;8040;50.254;10.960;2024-01-15T03:58:24;96710.19;;;1.07;64.80
15884;BME280;8040;50.254;10.960;2024-01-15T04:00:49;96702.72;;;1.04;64.67
15884;BME280;8040;50.254;10.960;2024-01-15T04:03:14;96704.91;;;0.97;64.52
15884;BME280;8040;50.254;10.960;2024-01-15T04:05:40;96699.78;;;1.06;64.57
15884;BME280;8040;50.254;10.960;2024-01-15T04:08:05;96696.06;;;1.02;64.65
15884;BME280;8040;50.254;10.960;2024-01-15T04:10:30;96700.56;;;1.06;64.59
15884;BME280;8040;50.254;10.960;2024-01-15T04:12:56;96689.09;;;1.06;64.75
15884;BME280;8040;50.254;10.960;2024-01-15T04:15:21;96692.22;;;1.18;64.71
15884;BME280;8040;50.254;10.960;2024-01-15T04:17:47;96706.91;;;1.15;64.58
15884;BME280;8040;50.254;10.960;2024-01-15T04:20:12;96697.00;;;1.21;64.83
15884;BME280;8040;50.254;10.960;2024-01-15T04:22:38;96696.19;;;1.25;65.23
15884;BME280;8040;50.254;10.960;2024-01-15T04:25:03;96696.34;;;1.34;64.62
15884;BME280;8040;50.254;10.960;2024-01-15T04:27:28;96689.97;;;1.35;64.26
15884;BME280;8040;50.254;10.960;2024-01-15T04:29:54;96682.75;;;1.30;64.46
15884;BME280;8040;50.254;10.960;2024-01-15T04:32:19;96693.44;;;1.30;64.65
15884;BME280;8040;50.254;10.960;2024-01-15T04:34:44;96702.50;;;1.34;64.39
15884;BME280;8040;50.254;10.960;2024-01-15T04:37:10;96706.25;;;1.33;64.56
15884;BME280;8040;50.254;10.960;2024-01-15T04:39:35;96690.78;;;1.30;64.65
15884;BME280;8040;50.254;10.960;2024-01-15T04:42:00;96691.31;;;1.32;64.55
15884;BME280;8040;50.254;10.960;2024-01-15T04:44:26;96686.47;;;1.34;64.85
15884;BME280;8040;50.254;10.960;2024-01-15T04:46:51;96677.88;;;1.42;64.51
15884;BME280;8040;50.254;10.960;2024-01-15T04:49:18;96688.78;;;1.46;64.63
15884;BME280;8040;50.254;10.960;2024-01-15T04:51:43;96685.34;;;1.45;64.47
15884;BME280;8040;50.254;10.960;2024-01-15T04:54:08;96693.38;;;1.40;64.58
15884;BME280;8040;50.254;10.960;2024-01-15T04:56:33;96683.31;;;1.32;64.68
15884;BME280;8040;50.254;10.960;2024-01-15T04:58:59;96690.22;;;1.38;65.21
15884;BME280;8040;50.254;10.960;2024-01-15T05:01:24;96692.31;;;1.41;65.86
15884;BME280;8040;50.254;10.960;2024-01-15T05:03:49;96695.78;;;1.42;65.17
15884;BME280;8040;50.254;10.960;2024-01-15T05:06:15;96704.63;;;1.37;65.27
15884;BME280;8040;50.254;10.960;2024-01-15T05:08:40;96707.78;;;1.44;65.61
15884;BME280;8040;50.254;10.960;2024-01-15T05:11:06;96701.91;;;1.42;65.36
15884;BME280;8040;50.254;10.960;2024-01-15T05:13:31;96696.66;;;1.32;65.33
15884;BME280;8040;50.254;10.960;2024-01-15T05:15:56;96698.56;;;1.27;65.44
15884;BME280;8040;50.254;10.960;2024-01-15T05:18:22;96692.09;;;1.33;65.15
15884;BME280;8040;50.254;10.960;2024-01-15T05:20:47;96695.88;;;1.27;65.47
15884;BME280;8040;50.254;10.960;2024-01-15T05:23:12;96696.66;;;1.32;65.83
15884;BME280;8040;50.254;10.960;2024-01-15T05:25:37;96691.53;;;1.41;65.94
15884;BME280;8040;50.254;10.960;2024-01-15T05:28:03;96692.50;;;1.50;66.32
15884;BME280;8040;50.254;10.960;2024-01-15T05:30:28;96684.81;;;1.43;66.01
15884;BME280;8040;50.254;10.960;2024-01-15T05:32:53;96687.66;;;1.52;66.10
15884;BME280;8040;50.254;10.960;2024-01-15T05:35:19;96680.97;;;1.54;65.56
15884;BME280;8040;50.254;10.960;2024-01-15T05:37:45;96680.97;;;1.54;65.66
15884;BME280;8040;50.254;10.960;2024-01-15T05:40:10;96686.00;;;1.61;65.39
15884;BME280;8040;50.254;10.960;2024-01-15T05:42:36;96680.44;;;1.57;64.89
15884;BME280;8040;50.254;10.960;2024-01-15T05:45:01;96675.63;;;1.54;65.51
15884;BME280;8040;50.254;10.960;2024-01-15T05:47:29;96675.59;;;1.59;65.00
15884;BME280;8040;50.254;10.960;2024-01-15T05:49:54;96674.00;;;1.58;65.36
15884;BME280;8040;50.254;10.960;2024-01-15T05:52:20;96683.09;;;1.57;65.01
15884;BME280;8040;50.254;10.960;2024-01-15T05:54:46;96672.44;;;1.52;64.78
15884;BME280;8040;50.254;10.960;2024-01-15T05:57:12;96678.03;;;1.56;65.00
15884;BME280;8040;50.254;10.960;2024-01-15T05:59:37;96680.44;;;1.57;65.09
15884;BME280;8040;50.254;10.960;2024-01-15T06:02:03;96681.22;;;1.58;64.97
15884;BME280;8040;50.254;10.960;2024-01-15T06:04:28;96678.78;;;1.61;64.86
15884;BME280;8040;50.254;10.960;2024-01-15T06:06:53;96693.13;;;1.70;64.74
15884;BME280;8040;50.254;10.960;2024-01-15T06:09:19;96691.63;;;1.59;64.89
15884;BME280;8040;50.254;10.960;2024-01-15T06:11:44;96691.63;;;1.59;64.40
15884;BME280;8040;50.254;10.960;2024-01-15T06:14:09;96693.94;;;1.71;64.83
15884;BME280;8040;50.254;10.960;2024-01-15T06:16:35;96693.13;;;1.70;64.95
15884;BME280;8040;50.254;10.960;2024-01-15T06:19:01;96686.72;;;1.71;64.80
15884;BME280;8040;50.254;10.960;2024-01-15T06:21:26;96690.66;;;1.79;64.90
15884;BME280;8040;50.254;10.960;2024-01-15T06:23:51;96677.66;;;1.67;64.66
15884;BME280;8040;50.254;10.960;2024-01-15T06:26:17;96692.09;;;1.66;64.94
15884;BME280;8040;50.254;10.960;2024-01-15T06:28:42;96682.53;;;1.60;64.81
15884;BME280;8040;50.254;10.960;2024-01-15T06:31:07;96686.28;;;1.59;65.22
15884;BME280;8040;50.254;10.960;2024-01-15T06:33:33;96688.44;;;1.57;65.50
15884;BME280;8040;50.254;10.960;2024-01-15T06:35:58;96682.59;;;1.55;65.39
15884;BME280;8040;50.254;10.960;2024-01-15T06:38:23;96684.75;;;1.48;65.60
15884;BME280;8040;50.254;10.960;2024-01-15T06:40:50;96673.69;;;1.31;65.40
15884;BME280;8040;50.254;10.960;2024-01-15T06:43:16;96677.13;;;1.37;65.42
15884;BME280;8040;50.254;10.960;2024-01-15T06:45:42;96682.44;;;1.42;65.49
15884;BME280;8040;50.254;10.960;2024-01-15T06:48:08;96676.84;;;1.38;65.85
15884;BME280;8040;50.254;10.960;2024-01-15T06:50:33;96676.84;;;1.38;66.18
15884;BME280;8040;50.254;10.960;2024-01-15T06:52:58;96690.75;;;1.35;66.18
15884;BME280;8040;50.254;10.960;2024-01-15T06:55:26;96675.25;;;1.37;66.17
15884;BME280;8040;50.254;10.960;2024-01-15T06:57:53;96689.59;;;1.46;65.76
15884;BME280;8040;50.254;10.960;2024-01-15T07:00:21;96684.75;;;1.48;65.55
15884;BME280;8040;50.254;10.960;2024-01-15T07:02:46;96674.56;;;1.55;65.70
15884;BME280;8040;50.254;10.960;2024-01-15T07:05:12;96678.25;;;1.59;65.40
15884;BME280;8040;50.254;10.960;2024-01-15T07:07:37;96673.44;;;1.61;65.14
15884;BME280;8040;50.254;10.960;2024-01-15T07:10:02;96664.41;;;1.57;65.29
15884;BME280;8040;50.254;10.960;2024-01-15T07:12:29;96669.97;;;1.61;64.92
15884;BME280;8040;50.254;10.960;2024-01-15T07:14:54;96672.00;;;1.74;65.56
15884;BME280;8040;50.254;10.960;2024-01-15T07:17:20;96673.69;;;1.65;65.15
15884;BME280;8040;50.254;10.960;2024-01-15T07:19:45;96673.69;;;1.93;67.29
15884;BME280;8040;50.254;10.960;2024-01-15T07:22:11;96680.09;;;1.92;64.83
15884;BME280;8040;50.254;10.960;2024-01-15T07:24:36;96694.91;;;2.08;65.36
15884;BME280;8040;50.254;10.960;2024-01-15T07:27:02;96690.19;;;2.00;64.05
15884;BME280;8040;50.254;10.960;2024-01-15T07:29:29;96696.03;;;2.02;64.01
15884;BME280;8040;50.254;10.960;2024-01-15T07:31:55;96708.31;;;2.03;64.09
15884;BME280;8040;50.254;10.960;2024-01-15T07:34:20;96702.41;;;2.06;63.92
15884;BME280;8040;50.254;10.960;2024-01-15T07:36:45;96703.91;;;2.17;64.13
15884;BME280;8040;50.254;10.960;2024-01-15T07:39:11;96707.00;;;2.29;64.79
15884;BME280;8040;50.254;10.960;2024-01-15T07:41:36;96709.13;;;2.27;63.46
15884;BME280;8040;50.254;10.960;2024-01-15T07:44:02;96706.19;;;2.29;63.08
15884;BME280;8040;50.254;10.960;2024-01-15T07:46:27;96708.03;;;2.28;63.02
15884;BME280;8040;50.254;10.960;2024-01-15T07:48:52;96713.94;;;2.30;63.17
15884;BME280;8040;50.254;10.960;2024-01-15T07:51:21;96716.25;;;2.37;63.02
15884;BME280;8040;50.254;10.960;2024-01-15T07:53:47;96712.50;;;2.38;63.64
15884;BME280;8040;50.254;10.960;2024-01-15T07:56:12;96708.78;;;2.57;63.52
15884;BME280;8040;50.254;10.960;2024-01-15T07:58:37;96702.56;;;2.85;63.43
15884;BME280;8040;50.254;10.960;2024-01-15T08:01:03;96697.84;;;2.96;63.64
15884;BME280;8040;50.254;10.960;2024-01-15T08:03:28;96699.88;;;2.85;61.78
15884;BME280;8040;50.254;10.960;2024-01-15T08:05:53;96702.69;;;2.75;61.54
15884;BME280;8040;50.254;10.960;2024-01-15T08:08:19;96701.53;;;2.81;61.73
15884;BME280;8040;50.254;10.960;2024-01-15T08:10:46;96712.28;;;2.76;61.46
15884;BME280;8040;50.254;10.960;2024-01-15T08:13:11;96698.41;;;2.74;61.59
15884;BME280;8040;50.254;10.960;2024-01-15T08:15:36;96698.53;;;2.64;61.42
15884;BME280;8040;50.254;10.960;2024-01-15T08:18:02;96705.13;;;2.72;61.65
15884;BME280;8040;50.254;10.960;2024-01-15T08:20:28;96703.81;;;2.69;61.54
15884;BME280;8040;50.254;10.960;2024-01-15T08:22:53;96702.34;;;2.82;62.11
15884;BME280;8040;50.254;10.960;2024-01-15T08:25:18;96697.38;;;2.70;61.55
15884;BME280;8040;50.254;10.960;2024-01-15T08:27:47;96706.50;;;2.69;61.72
15884;BME280;8040;50.254;10.960;2024-01-15T08:30:12;96702.06;;;2.83;62.14
15884;BME280;8040;50.254;10.960;2024-01-15T08:32:39;96708.56;;;2.77;61.61
15884;BME280;8040;50.254;10.960;2024-01-15T08:35:08;96711.16;;;2.82;61.86
15884;BME280;8040;50.254;10.960;2024-01-15T08:37:33;96715.13;;;2.85;61.76
15884;BME280;8040;50.254;10.960;2024-01-15T08:39:58;96707.75;;;2.77;61.18
15884;BME280;8040;50.254;10.960;2024-01-15T08:42:24;96701.97;;;2.70;61.19
15884;BME280;8040;50.254;10.960;2024-01-15T08:44:49;96701.97;;;2.70;61.45
15884;BME280;8040;50.254;10.960;2024-01-15T08:47:15;96708.47;;;2.64;61.76
15884;BME280;8040;50.254;10.960;2024-01-15T08:49:43;96695.25;;;2.72;61.60
15884;BME280;8040;50.254;10.960;2024-01-15T08:52:10;96705.63;;;2.74;61.24
15884;BME280;8040;50.254;10.960;2024-01-15T08:54:35;96696.00;;;2.73;61.39
15884;BME280;8040;50.254;10.960;2024-01-15T08:57:00;96689.88;;;2.72;61.45
15884;BME280;8040;50.254;10.960;2024-01-15T08:59:26;96686.19;;;2.68;61.82
15884;BME280;8040;50.254;10.960;2024-01-15T09:01:52;96689.66;;;2.69;61.72
15884;BME280;8040;50.254;10.960;2024-01-15T09:04:17;96693.13;;;2.69;61.54
15884;BME280;8040;50.254;10.960;2024-01-15T09:06:45;96701.97;;;2.70;61.50
15884;BME280;8040;50.254;10.960;2024-01-15T09:09:14;96698.63;;;2.78;61.60
15884;BME280;8040;50.254;10.960;2024-01-15T09:11:45;96707.97;;;2.80;60.80
15884;BME280;8040;50.254;10.960;2024-01-15T09:14:10;96713.16;;;2.72;60.44
15884;BME280;8040;50.254;10.960;2024-01-15T09:16:35;96700.44;;;2.82;60.81
15884;BME280;8040;50.254;10.960;2024-01-15T09:19:00;96707.84;;;2.90;60.99
15884;BME280;8040;50.254;10.960;2024-01-15T09:21:26;96698.72;;;2.91;59.88
15884;BME280;8040;50.254;10.960;2024-01-15T09:23:51;96693.28;;;2.78;59.95
15884;BME280;8040;50.254;10.960;2024-01-15T09:26:16;96694.88;;;2.79;60.34
15884;BME280;8040;50.254;10.960;2024-01-15T09:28:42;96700.75;;;2.81;60.81
15884;BME280;8040;50.254;10.960;2024-01-15T09:31:07;96708.63;;;2.72;60.37
15884;BME280;8040;50.254;10.960;2024-01-15T09:33:34;96711.78;;;2.74;60.50
15884;BME280;8040;50.254;10.960;2024-01-15T09:36:03;96711.41;;;2.62;60.82
15884;BME280;8040;50.254;10.960;2024-01-15T09:38:29;96709.38;;;2.54;61.71
15884;BME280;8040;50.254;10.960;2024-01-15T09:40:54;96719.03;;;2.50;61.34
15884;BME280;8040;50.254;10.960;2024-01-15T09:43:20;96719.84;;;2.51;61.29
15884;BME280;8040;50.254;10.960;2024-01-15T09:45:45;96709.75;;;2.43;61.55
15884;BME280;8040;50.254;10.960;2024-01-15T09:48:11;96706.75;;;2.49;61.95
15884;BME280;8040;50.254;10.960;2024-01-15T09:50:37;96715.44;;;2.60;61.56
15884;BME280;8040;50.254;10.960;2024-01-15T09:53:03;96712.09;;;2.49;61.33
15884;BME280;8040;50.254;10.960;2024-01-15T09:55:29;96714.19;;;2.52;61.58
15884;BME280;8040;50.254;10.960;2024-01-15T09:57:55;96711.19;;;2.59;61.73
15884;BME280;8040;50.254;10.960;2024-01-15T10:00:21;96713.22;;;2.67;61.92
15884;BME280;8040;50.254;10.960;2024-01-15T10:02:47;96710.25;;;2.68;61.82
15884;BME280;8040;50.254;10.960;2024-01-15T10:05:12;96709.63;;;2.76;61.62
15884;BME280;8040;50.254;10.960;2024-01-15T10:07:39;96696.69;;;2.83;61.42
15884;BME280;8040;50.254;10.960;2024-01-15T10:10:05;96701.53;;;2.81;61.35
15884;BME280;8040;50.254;10.960;2024-01-15T10:12:30;96685.78;;;2.98;61.32
15884;BME280;8040;50.254;10.960;2024-01-15T10:14:56;96687.88;;;3.01;61.06
15884;BME280;8040;50.254;10.960;2024-01-15T10:17:23;96686.94;;;3.11;60.78
15884;BME280;8040;50.254;10.960;2024-01-15T10:19:49;96680.19;;;3.13;60.17
15884;BME280;8040;50.254;10.960;2024-01-15T10:22:14;96674.00;;;3.18;60.13
15884;BME280;8040;50.254;10.960;2024-01-15T10:24:41;96650.09;;;3.21;60.11
15884;BME280;8040;50.254;10.960;2024-01-15T10:27:09;96660.56;;;3.36;60.40
15884;BME280;8040;50.254;10.960;2024-01-15T10:29:35;96661.50;;;3.45;60.08
15884;BME280;8040;50.254;10.960;2024-01-15T10:32:00;96658.91;;;3.40;59.78
15884;BME280;8040;50.254;10.960;2024-01-15T10:34:26;96660.56;;;3.36;59.73
15884;BME280;8040;50.254;10.960;2024-01-15T10:36:51;96657.66;;;3.33;59.86
15884;BME280;8040;50.254;10.960;2024-01-15T10:39:22;96652.09;;;3.29;59.92
15884;BME280;8040;50.254;10.960;2024-01-15T10:41:47;96650.09;;;3.21;59.97
15884;BME280;8040;50.254;10.960;2024-01-15T10:44:12;96650.59;;;3.23;59.94
15884;BME280;8040;50.254;10.960;2024-01-15T10:46:38;96642.47;;;3.28;60.46
15884;BME280;8040;50.254;10.960;2024-01-15T10:49:04;96646.16;;;3.32;60.19
15884;BME280;8040;50.254;10.960;2024-01-15T10:51:29;96632.25;;;3.30;60.32
15884;BME280;8040;50.254;10.960;2024-01-15T10:53:54;96634.00;;;3.21;59.91
15884;BME280;8040;50.254;10.960;2024-01-15T10:56:21;96636.44;;;3.36;60.47
15884;BME280;8040;50.254;10.960;2024-01-15T10:58:46;96625.72;;;3.36;60.10
15884;BME280;8040;50.254;10.960;2024-01-15T11:01:18;96630.81;;;3.38;60.31
15884;BME280;8040;50.254;10.960;2024-01-15T11:03:44;96629.00;;;3.33;60.04
15884;BME280;8040;50.254;10.960;2024-01-15T11:06:19;96629.22;;;3.18;59.85
15884;BME280;8040;50.254;10.960;2024-01-15T11:08:48;96637.94;;;3.10;60.30
15884;BME280;8040;50.254;10.960;2024-01-15T11:11:15;96635.75;;;3.12;60.97
15884;BME280;8040;50.254;10.960;2024-01-15T11:13:46;96630.72;;;3.11;60.80
15884;BME280;8040;50.254;10.960;2024-01-15T11:16:12;96625.22;;;3.02;60.80
15884;BME280;8040;50.254;10.960;2024-01-15T11:18:39;96629.97;;;3.05;61.23
15884;BME280;8040;50.254;10.960;2024-01-15T11:23:45;96626.94;;;3.12;61.40
15884;BME280;8040;50.254;10.960;2024-01-15T11:28:55;96613.56;;;3.25;61.12
15884;BME280;8040;50.254;10.960;2024-01-15T11:31:28;96611.06;;;3.15;61.07
15884;BME280;8040;50.254;10.960;2024-01-15T11:33:53;96618.31;;;3.15;61.13
15884;BME280;8040;50.254;10.960;2024-01-15T11:36:20;96619.84;;;3.02;61.48
15884;BME280;8040;50.254;10.960;2024-01-15T11:38:45;96624.13;;;3.03;61.47
15884;BME280;8040;50.254;10.960;2024-01-15T11:41:14;96618.69;;;3.08;61.48
15884;BME280;8040;50.254;10.960;2024-01-15T11:43:42;96617.06;;;3.07;61.19
15884;BME280;8040;50.254;10.960;2024-01-15T11:46:10;96607.59;;;3.15;61.50
15884;BME280;8040;50.254;10.960;2024-01-15T11:48:41;96608.31;;;3.20;61.67
15884;BME280;8040;50.254;10.960;2024-01-15T11:51:08;96598.84;;;3.09;61.44
15884;BME280;8040;50.254;10.960;2024-01-15T11:53:36;96600.22;;;3.07;61.71
15884;BME280;8040;50.254;10.960;2024-01-15T11:56:06;96600.00;;;3.03;61.83
15884;BME280;8040;50.254;10.960;2024-01-15T11:58:36;96593.03;;;3.21;62.74
15884;BME280;8040;50.254;10.960;2024-01-15T12:01:02;96600.38;;;3.15;61.58
15884;BME280;8040;50.254;10.960;2024-01-15T12:03:31;96593.75;;;3.26;61.51
15884;BME280;8040;50.254;10.960;2024-01-15T12:05:58;96592.88;;;3.31;61.62
15884;BME280;8040;50.254;10.960;2024-01-15T12:08:25;96584.03;;;3.30;61.71
15884;BME280;8040;50.254;10.960;2024-01-15T12:10:51;96580.25;;;3.31;61.23
15884;BME280;8040;50.254;10.960;2024-01-15T12:13:17;96578.19;;;3.28;61.50
15884;BME280;8040;50.254;10.960;2024-01-15T12:15:43;96579.69;;;3.34;61.45
15884;BME280;8040;50.254;10.960;2024-01-15T12:18:09;96576.50;;;3.32;61.42
15884;BME280;8040;50.254;10.960;2024-01-15T12:20:35;96566.16;;;3.26;61.48
15884;BME280;8040;50.254;10.960;2024-01-15T12:23:01;96578.88;;;3.34;61.64
15884;BME280;8040;50.254;10.960;2024-01-15T12:25:28;96571.44;;;3.31;61.42
15884;BME280;8040;50.254;10.960;2024-01-15T12:27:54;96575.22;;;3.30;61.50
15884;BME280;8040;50.254;10.960;2024-01-15T12:30:19;96557.22;;;3.30;61.53
15884;BME280;8040;50.254;10.960;2024-01-15T12:32:45;96560.72;;;3.31;61.25
15884;BME280;8040;50.254;10.960;2024-01-15T12:35:12;96557.84;;;3.27;61.74
15884;BME280;8040;50.254;10.960;2024-01-15T12:37:38;96558.53;;;3.33;61.68
15884;BME280;8040;50.254;10.960;2024-01-15T12:40:04;96555.38;;;3.31;61.27
15884;BME280;8040;50.254;10.960;2024-01-15T12:42:32;96540.59;;;3.33;61.31
15884;BME280;8040;50.254;10.960;2024-01-15T12:44:57;96551.50;;;3.37;60.98
15884;BME280;8040;50.254;10.960;2024-01-15T12:47:22;96542.94;;;3.35;61.38
15884;BME280;8040;50.254;10.960;2024-01-15T12:49:47;96547.44;;;3.39;61.15
15884;BME280;8040;50.254;10.960;2024-01-15T12:52:18;96545.34;;;3.36;61.24
15884;BME280;8040;50.254;10.960;2024-01-15T12:54:43;96541.00;;;3.40;61.35
15884;BME280;8040;50.254;10.960;2024-01-15T12:57:09;96538.16;;;3.50;61.04
15884;BME280;8040;50.254;10.960;2024-01-15T12:59:34;96530.09;;;3.50;61.02
15884;BME280;8040;50.254;10.960;2024-01-15T13:01:59;96538.63;;;3.52;60.98
15884;BME280;8040;50.254;10.960;2024-01-15T13:04:26;96536.53;;;3.49;60.83
15884;BME280;8040;50.254;10.960;2024-01-15T13:06:51;96537.34;;;3.50;60.93